createdAt,value
2019-01-09T00:01:10.656Z,2.40
2019-01-09T00:03:38.872Z,2.37
2019-01-09T00:06:07.077Z,5.10
2019-01-09T00:08:35.259Z,2.40
2019-01-09T00:11:03.472Z,2.17
2019-01-09T00:13:31.711Z,2.03
2019-01-09T00:15:59.914Z,2.30
2019-01-09T00:18:28.176Z,2.97
2019-01-09T00:20:56.385Z,2.30
2019-01-09T00:23:24.562Z,4.17
2019-01-09T00:25:52.740Z,1.97
2019-01-09T00:28:20.909Z,2.83
2019-01-09T00:30:49.117Z,1.33
2019-01-09T00:33:17.292Z,2.10
2019-01-09T00:35:45.470Z,3.10
2019-01-09T00:38:13.968Z,2.10
2019-01-09T00:40:42.173Z,1.77
2019-01-09T00:43:10.336Z,5.70
2019-01-09T00:45:38.519Z,1.90
2019-01-09T00:48:06.703Z,1.93
2019-01-09T00:50:34.913Z,2.53
2019-01-09T00:53:03.121Z,2.07
2019-01-09T00:55:31.365Z,1.47
2019-01-09T00:57:59.572Z,1.77
2019-01-09T01:00:27.773Z,1.20
2019-01-09T01:03:12.588Z,2.13
2019-01-09T01:05:46.258Z,1.30
2019-01-09T01:08:19.071Z,1.60
2019-01-09T01:10:48.788Z,1.73
2019-01-09T01:13:27.221Z,1.50
2019-01-09T01:15:56.970Z,1.40
2019-01-09T01:18:43.213Z,1.77
2019-01-09T01:21:15.613Z,1.60
2019-01-09T01:24:02.089Z,1.40
2019-01-09T01:26:31.837Z,2.13
2019-01-09T01:29:04.297Z,1.30
2019-01-09T01:31:42.930Z,1.60
2019-01-09T01:34:21.439Z,1.57
2019-01-09T01:36:51.189Z,2.63
2019-01-09T01:39:23.609Z,1.97
2019-01-09T01:42:08.385Z,1.67
2019-01-09T01:44:38.088Z,1.93
2019-01-09T01:47:10.761Z,2.40
2019-01-09T01:49:40.480Z,2.63
2019-01-09T01:52:13.126Z,1.77
2019-01-09T01:54:55.163Z,1.60
2019-01-09T01:57:43.217Z,1.70
2019-01-09T02:00:18.638Z,1.60
2019-01-09T02:03:04.921Z,2.87
2019-01-09T02:05:34.664Z,1.70
2019-01-09T02:08:04.401Z,2.90
2019-01-09T02:10:50.504Z,2.40
2019-01-09T02:13:23.133Z,1.80
2019-01-09T02:16:05.005Z,3.00
2019-01-09T02:18:34.733Z,1.80
2019-01-09T02:21:11.415Z,2.80
2019-01-09T02:23:50.141Z,2.50
2019-01-09T02:26:22.928Z,2.20
2019-01-09T02:29:04.906Z,2.30
2019-01-09T02:31:34.653Z,4.17
2019-01-09T02:34:02.832Z,2.07
2019-01-09T02:36:31.008Z,3.23
2019-01-09T02:38:59.199Z,3.47
2019-01-09T04:28:54.604Z,2.70
2019-01-09T04:31:22.788Z,2.93
2019-01-09T04:33:50.978Z,3.73
2019-01-09T04:36:19.197Z,2.90
2019-01-09T04:38:47.392Z,2.63
2019-01-09T04:41:15.594Z,9.60
2019-01-09T04:43:43.790Z,2.57
2019-01-09T04:46:11.992Z,2.37
2019-01-09T04:48:40.197Z,2.70
2019-01-09T04:51:10.268Z,3.00
2019-01-09T04:53:38.449Z,2.30
2019-01-09T04:56:06.691Z,4.00
2019-01-09T04:58:34.908Z,3.07
2019-01-09T05:01:03.128Z,2.70
2019-01-09T05:03:31.369Z,2.20
2019-01-09T05:05:59.536Z,2.70
2019-01-09T05:08:27.741Z,3.67
2019-01-09T05:10:55.916Z,4.37
2019-01-09T05:13:24.089Z,2.90
2019-01-09T05:15:52.329Z,3.30
2019-01-09T05:18:20.500Z,2.40
2019-01-09T05:20:48.672Z,3.00
2019-01-09T05:23:16.889Z,2.50
2019-01-09T05:25:45.064Z,3.20
2019-01-09T05:28:13.231Z,2.40
2019-01-09T05:30:41.434Z,5.03
2019-01-09T05:33:09.603Z,6.27
2019-01-09T05:35:37.856Z,3.33
2019-01-09T05:38:06.138Z,4.53
2019-01-09T05:40:34.384Z,2.33
2019-01-09T05:43:02.622Z,2.23
2019-01-09T05:45:30.794Z,2.63
2019-01-09T05:47:58.976Z,2.70
2019-01-09T05:50:27.153Z,2.10
2019-01-09T05:52:55.426Z,3.40
2019-01-09T05:55:23.762Z,2.57
2019-01-09T05:57:51.986Z,2.50
2019-01-09T06:00:20.212Z,2.90
2019-01-09T06:02:48.426Z,3.87
2019-01-09T06:05:16.626Z,4.67
2019-01-09T06:07:44.813Z,5.50
2019-01-09T06:10:12.990Z,4.67
2019-01-09T06:12:41.192Z,5.17
2019-01-09T06:15:09.437Z,6.73
2019-01-09T06:17:37.642Z,5.30
2019-01-09T06:20:06.280Z,4.67
2019-01-09T06:22:34.490Z,3.87
2019-01-09T06:25:02.694Z,3.23
2019-01-09T06:27:30.857Z,3.50
2019-01-09T06:29:59.038Z,3.87
2019-01-09T06:32:27.246Z,4.47
2019-01-09T06:34:55.411Z,5.77
2019-01-09T06:37:27.533Z,5.60
2019-01-09T06:39:53.562Z,5.30
2019-01-09T06:42:21.776Z,5.03
2019-01-09T06:44:50.067Z,4.90
2019-01-09T06:47:18.239Z,13.80
2019-01-09T06:49:46.415Z,6.23
2019-01-09T06:52:14.625Z,4.83
2019-01-09T06:54:42.839Z,3.03
2019-01-09T06:57:12.069Z,2.43
2019-01-09T06:59:40.283Z,2.60
2019-01-09T07:02:08.477Z,4.57
2019-01-09T07:04:36.675Z,4.33
2019-01-09T07:07:04.851Z,4.00
2019-01-09T07:09:33.065Z,3.20
2019-01-09T07:12:01.277Z,5.50
2019-01-09T07:14:29.447Z,4.77
2019-01-09T07:16:57.673Z,7.07
2019-01-09T07:19:25.896Z,2.50
2019-01-09T07:21:54.060Z,5.00
2019-01-09T07:24:22.252Z,3.57
2019-01-09T07:26:50.469Z,3.90
2019-01-09T07:29:18.640Z,2.93
2019-01-09T07:31:46.819Z,2.40
2019-01-09T07:34:15.033Z,2.83
2019-01-09T07:36:43.224Z,3.33
2019-01-09T07:39:11.437Z,2.27
2019-01-09T07:41:39.641Z,1.80
2019-01-09T07:44:07.815Z,1.90
2019-01-09T07:46:35.987Z,3.10
2019-01-09T07:49:04.200Z,1.73
2019-01-09T07:51:32.401Z,1.43
2019-01-09T07:54:00.581Z,2.03
2019-01-09T07:56:28.759Z,3.80
2019-01-09T07:58:56.988Z,2.17
2019-01-09T08:01:25.159Z,5.40
2019-01-09T08:03:53.366Z,1.90
2019-01-09T08:06:21.573Z,3.30
2019-01-09T08:08:49.773Z,3.40
2019-01-09T08:11:17.951Z,1.90
2019-01-09T08:13:46.125Z,1.50
2019-01-09T08:16:14.311Z,2.70
2019-01-09T08:18:42.485Z,3.90
2019-01-09T08:21:10.748Z,2.13
2019-01-09T08:23:39.072Z,2.00
2019-01-09T08:26:07.329Z,2.87
2019-01-09T08:28:35.507Z,2.80
2019-01-09T08:31:03.761Z,2.63
2019-01-09T08:33:31.954Z,1.97
2019-01-09T08:36:00.137Z,1.50
2019-01-09T08:38:28.349Z,2.23
2019-01-09T08:40:56.553Z,2.73
2019-01-09T08:43:24.781Z,1.70
2019-01-09T08:45:52.955Z,1.97
2019-01-09T08:48:21.132Z,1.50
2019-01-09T08:50:49.346Z,1.40
2019-01-09T08:53:17.508Z,1.60
2019-01-09T08:55:45.680Z,1.20
2019-01-09T08:58:13.897Z,1.40
2019-01-09T09:00:42.105Z,1.00
2019-01-09T09:03:10.279Z,1.63
2019-01-09T09:05:38.459Z,1.43
2019-01-09T09:08:11.829Z,1.40
2019-01-09T09:10:36.570Z,1.30
2019-01-09T09:13:04.766Z,1.73
2019-01-09T09:15:32.972Z,2.77
2019-01-09T09:18:01.140Z,1.77
2019-01-09T09:20:29.348Z,1.40
2019-01-09T09:22:57.532Z,1.60
2019-01-09T09:25:25.703Z,1.20
2019-01-09T09:27:53.884Z,1.53
2019-01-09T09:30:22.085Z,2.30
2019-01-09T09:32:50.269Z,1.30
2019-01-09T09:35:18.440Z,1.40
2019-01-09T09:37:46.654Z,1.33
2019-01-09T09:40:16.395Z,2.83
2019-01-09T09:42:44.578Z,1.80
2019-01-09T09:45:12.743Z,6.57
2019-01-09T09:47:40.920Z,1.40
2019-01-09T09:50:13.609Z,1.50
2019-01-09T09:52:41.788Z,1.30
2019-01-09T09:55:12.990Z,1.60
2019-01-09T09:57:40.012Z,1.30
2019-01-09T10:00:09.784Z,1.20
2019-01-09T10:02:38.053Z,1.30
2019-01-09T10:05:06.224Z,2.10
2019-01-09T10:07:34.437Z,1.33
2019-01-09T10:10:02.645Z,1.33
2019-01-09T10:12:30.837Z,2.43
2019-01-09T10:14:59.004Z,1.00
2019-01-09T10:17:27.225Z,1.10
2019-01-09T10:19:55.429Z,1.10
2019-01-09T10:22:23.595Z,1.37
2019-01-09T10:24:51.772Z,1.07
2019-01-09T10:27:19.952Z,1.20
2019-01-09T10:29:48.159Z,1.30
2019-01-09T10:32:16.398Z,1.70
2019-01-09T10:34:44.592Z,1.30
2019-01-09T10:37:12.790Z,1.40
2019-01-09T10:39:40.964Z,1.40
2019-01-09T10:42:09.181Z,1.77
2019-01-09T10:44:37.382Z,1.40
2019-01-09T10:47:05.582Z,1.17
2019-01-09T10:49:33.781Z,1.50
2019-01-09T10:52:01.981Z,1.70
2019-01-09T10:54:30.193Z,3.07
2019-01-09T10:56:58.400Z,1.27
2019-01-09T10:59:26.616Z,2.50
2019-01-09T11:01:54.796Z,1.23
2019-01-09T11:04:22.969Z,1.30
2019-01-09T11:06:51.177Z,1.70
2019-01-09T11:09:19.373Z,1.33
2019-01-09T11:11:47.547Z,1.53
2019-01-09T11:14:15.753Z,1.50
2019-01-09T11:16:43.961Z,1.40
2019-01-09T11:19:13.324Z,1.93
2019-01-09T11:21:41.524Z,1.33
2019-01-09T11:24:10.630Z,1.37
2019-01-09T11:26:38.865Z,1.23
2019-01-09T11:29:07.062Z,1.70
2019-01-09T11:31:35.224Z,1.43
2019-01-09T11:34:03.678Z,2.33
2019-01-09T11:36:31.851Z,2.30
2019-01-09T11:39:00.032Z,2.33
2019-01-09T11:41:28.237Z,2.17
2019-01-09T11:43:56.415Z,1.87
2019-01-09T11:46:24.584Z,1.43
2019-01-09T11:48:53.121Z,1.40
2019-01-09T11:51:21.287Z,1.87
2019-01-09T11:53:49.466Z,3.17
2019-01-09T11:56:17.649Z,2.23
2019-01-09T11:58:45.820Z,2.40
2019-01-09T12:01:14.033Z,1.20
2019-01-09T12:03:42.197Z,2.47
2019-01-09T12:06:10.464Z,1.40
2019-01-09T12:08:38.632Z,3.50
2019-01-09T12:11:06.923Z,1.30
2019-01-09T12:13:35.284Z,2.07
2019-01-09T12:16:08.174Z,2.40
2019-01-09T12:18:33.605Z,1.60
2019-01-09T12:21:01.805Z,2.20
2019-01-09T12:23:30.015Z,1.47
2019-01-09T12:25:58.260Z,2.07
2019-01-09T12:28:26.440Z,1.90
2019-01-09T12:30:54.647Z,1.63
2019-01-09T12:33:22.824Z,1.70
2019-01-09T12:35:50.996Z,3.50
2019-01-09T12:38:19.184Z,6.43
2019-01-09T12:40:47.398Z,1.57
2019-01-09T12:43:15.670Z,2.10
2019-01-09T12:45:43.939Z,1.30
2019-01-09T12:48:12.108Z,1.40
2019-01-09T12:50:40.314Z,1.40
2019-01-09T12:53:08.496Z,1.40
2019-01-09T12:55:36.704Z,1.47
2019-01-09T12:58:04.903Z,1.20
2019-01-09T13:00:33.117Z,1.40
2019-01-09T13:03:01.401Z,2.07
2019-01-09T13:05:29.567Z,1.30
2019-01-09T13:07:57.781Z,1.47
2019-01-09T13:10:25.985Z,1.63
2019-01-09T13:12:54.148Z,2.60
2019-01-09T13:15:22.361Z,1.50
2019-01-09T13:17:50.530Z,1.90
2019-01-09T13:20:18.708Z,1.57
2019-01-09T13:22:46.884Z,1.37
2019-01-09T13:25:15.069Z,1.90
2019-01-09T13:27:43.637Z,1.77
2019-01-09T13:30:13.393Z,1.43
2019-01-09T13:32:41.596Z,1.13
2019-01-09T13:35:09.865Z,2.67
2019-01-09T13:37:38.101Z,1.37
2019-01-09T13:40:07.844Z,1.27
2019-01-09T13:42:36.041Z,1.53
2019-01-09T13:45:05.388Z,1.60
2019-01-09T13:47:33.561Z,3.63
2019-01-09T13:50:01.744Z,1.40
2019-01-09T13:52:29.950Z,1.57
2019-01-09T13:54:58.128Z,1.20
2019-01-09T13:57:26.345Z,1.43
2019-01-09T13:59:54.558Z,1.40
2019-01-09T14:02:22.769Z,1.90
2019-01-09T14:04:50.935Z,1.73
2019-01-09T14:07:19.149Z,2.23
2019-01-09T14:09:47.320Z,1.30
2019-01-09T14:12:15.521Z,1.37
2019-01-09T14:14:43.734Z,2.03
2019-01-09T14:17:11.965Z,1.43
2019-01-09T14:19:40.212Z,1.83
2019-01-09T14:22:08.414Z,1.50
2019-01-09T14:24:36.622Z,1.00
2019-01-09T14:27:04.817Z,1.80
2019-01-09T14:29:32.996Z,1.47
2019-01-09T14:32:02.056Z,1.40
2019-01-09T14:34:30.261Z,2.10
2019-01-09T14:36:58.525Z,4.80
2019-01-09T14:39:26.695Z,2.40
2019-01-09T14:41:54.871Z,1.33
2019-01-09T14:44:23.090Z,1.40
2019-01-09T14:46:51.272Z,1.10
2019-01-09T14:49:19.447Z,1.00
2019-01-09T14:51:47.665Z,1.33
2019-01-09T14:54:15.874Z,1.40
2019-01-09T14:56:44.116Z,2.07
2019-01-09T14:59:12.320Z,1.50
2019-01-09T15:01:40.534Z,1.20
2019-01-09T15:04:08.937Z,1.87
2019-01-09T15:06:37.371Z,1.20
2019-01-09T15:09:06.710Z,2.00
2019-01-09T15:11:34.911Z,2.10
2019-01-09T15:14:04.594Z,1.33
2019-01-09T15:16:32.794Z,1.63
2019-01-09T15:19:01.009Z,2.40
2019-01-09T15:21:29.178Z,1.40
2019-01-09T15:23:57.390Z,1.80
2019-01-09T15:26:25.587Z,3.53
2019-01-09T15:28:53.767Z,1.50
2019-01-09T15:31:21.940Z,2.00
2019-01-09T15:33:50.141Z,2.03
2019-01-09T15:36:19.334Z,2.40
2019-01-09T15:38:47.540Z,1.40
2019-01-09T15:41:15.745Z,1.67
2019-01-09T15:43:43.936Z,2.67
2019-01-09T15:46:12.111Z,4.40
2019-01-09T15:48:40.284Z,1.70
2019-01-09T15:51:08.521Z,2.20
2019-01-09T15:53:36.740Z,2.33
2019-01-09T15:56:04.918Z,2.10
2019-01-09T15:58:33.121Z,1.70
2019-01-09T16:01:01.341Z,2.30
2019-01-09T16:03:29.508Z,2.47
2019-01-09T16:05:57.749Z,2.93
2019-01-09T16:08:25.948Z,1.97
2019-01-09T16:10:54.124Z,2.10
2019-01-09T16:13:22.310Z,1.63
2019-01-09T16:15:50.472Z,2.73
2019-01-09T16:18:18.685Z,2.40
2019-01-09T16:20:46.857Z,2.20
2019-01-09T16:23:15.069Z,2.40
2019-01-09T16:25:43.307Z,3.20
2019-01-09T16:28:11.513Z,2.47
2019-01-09T16:30:41.224Z,2.57
2019-01-09T16:33:09.438Z,2.77
2019-01-09T16:35:37.816Z,3.47
2019-01-09T16:38:06.020Z,3.00
2019-01-09T16:40:34.281Z,2.43
2019-01-09T16:43:02.501Z,2.10
2019-01-09T16:45:30.732Z,2.97
2019-01-09T16:47:59.012Z,3.00
2019-01-09T16:50:27.217Z,3.13
2019-01-09T16:52:55.395Z,2.20
2019-01-09T16:55:24.166Z,2.80
2019-01-09T16:57:52.433Z,5.40
2019-01-09T17:00:31.008Z,2.87
2019-01-09T17:02:59.289Z,3.07
2019-01-09T17:05:27.703Z,3.07
2019-01-09T17:07:55.908Z,3.33
2019-01-09T17:10:31.953Z,4.43
2019-01-09T17:12:53.980Z,7.40
2019-01-09T17:15:22.289Z,3.50
2019-01-09T17:17:50.532Z,3.03
2019-01-09T17:20:23.313Z,3.23
2019-01-09T17:22:51.521Z,3.03
2019-01-09T17:25:19.797Z,6.50
2019-01-09T17:27:48.854Z,4.70
2019-01-09T17:30:18.704Z,4.20
2019-01-09T17:32:46.993Z,3.60
2019-01-09T17:35:15.164Z,4.00
2019-01-09T17:37:43.365Z,3.80
2019-01-09T17:40:13.316Z,7.00
2019-01-09T17:42:41.487Z,4.10
2019-01-09T17:45:10.019Z,4.20
2019-01-09T17:47:38.217Z,4.70
2019-01-09T17:50:07.963Z,5.30
2019-01-09T17:52:36.165Z,7.40
2019-01-09T17:55:05.952Z,6.40
2019-01-09T17:57:34.161Z,5.33
2019-01-09T18:00:02.340Z,4.97
2019-01-09T18:02:30.524Z,5.20
2019-01-09T18:04:58.733Z,8.00
2019-01-09T18:07:26.937Z,7.27
2019-01-09T18:09:55.115Z,5.20
2019-01-09T18:12:23.280Z,7.90
2019-01-09T18:14:51.451Z,7.37
2019-01-09T18:17:19.665Z,5.60
2019-01-09T18:19:47.852Z,5.93
2019-01-09T18:22:16.026Z,5.40
2019-01-09T18:24:44.353Z,7.43
2019-01-09T18:27:12.554Z,6.23
2019-01-09T18:29:40.753Z,5.43
2019-01-09T18:32:12.126Z,7.40
2019-01-09T18:34:40.669Z,6.20
2019-01-09T18:37:22.597Z,5.60
2019-01-09T18:39:58.180Z,7.70
2019-01-09T18:42:44.752Z,8.37
2019-01-09T18:45:23.498Z,7.07
2019-01-09T18:47:53.276Z,7.77
2019-01-09T18:50:23.001Z,8.70
2019-01-09T18:52:52.756Z,9.33
2019-01-09T18:55:21.055Z,11.87
2019-01-09T18:57:50.209Z,7.93
2019-01-09T19:00:20.125Z,9.53
2019-01-09T19:02:48.307Z,11.17
2019-01-09T19:05:16.528Z,11.53
2019-01-09T19:07:44.810Z,12.07
2019-01-09T19:10:14.564Z,11.07
2019-01-09T19:12:43.128Z,11.20
2019-01-09T19:15:12.217Z,11.07
2019-01-09T19:17:40.388Z,10.03
2019-01-09T19:20:09.345Z,8.80
2019-01-09T19:22:37.596Z,7.77
2019-01-09T19:25:07.561Z,7.60
2019-01-09T19:27:35.807Z,7.50
2019-01-09T19:30:05.525Z,9.27
2019-01-09T19:32:33.704Z,7.70
2019-01-09T19:35:01.921Z,7.13
2019-01-09T19:37:30.369Z,8.37
2019-01-09T19:39:58.573Z,7.03
2019-01-09T19:42:26.793Z,7.07
2019-01-09T19:44:54.989Z,8.97
2019-01-09T19:47:23.189Z,10.53
2019-01-09T19:49:51.378Z,10.23
2019-01-09T19:52:19.557Z,11.30
2019-01-09T19:54:47.813Z,10.15
2019-01-09T19:57:15.993Z,10.07
2019-01-09T19:59:44.168Z,9.87
2019-01-09T20:02:12.376Z,11.10
2019-01-09T20:04:40.587Z,10.87
2019-01-09T20:07:08.827Z,9.67
2019-01-09T20:09:37.044Z,9.70
2019-01-09T20:12:05.422Z,10.10
2019-01-09T20:14:33.660Z,12.07
2019-01-09T20:17:02.079Z,9.50
2019-01-09T20:19:30.449Z,10.60
2019-01-09T20:21:58.707Z,9.87
2019-01-09T20:24:26.883Z,15.95
2019-01-09T20:26:55.078Z,12.70
2019-01-09T20:29:23.326Z,9.80
2019-01-09T20:31:51.628Z,11.40
2019-01-09T20:34:19.812Z,12.70
2019-01-09T20:36:48.870Z,10.90
2019-01-09T20:39:17.092Z,10.50
2019-01-09T20:41:45.365Z,10.43
2019-01-09T20:44:13.604Z,9.03
2019-01-09T20:46:41.929Z,9.73
2019-01-09T20:49:10.199Z,12.33
2019-01-09T20:51:38.419Z,10.60
2019-01-09T20:54:06.607Z,11.15
2019-01-09T20:56:34.908Z,9.50
2019-01-09T20:59:03.447Z,9.33
2019-01-09T21:01:31.719Z,13.95
2019-01-09T21:03:59.975Z,12.33
2019-01-09T21:06:28.265Z,8.20
2019-01-09T21:08:59.630Z,9.13
2019-01-09T21:11:26.372Z,8.30
2019-01-09T21:13:54.586Z,8.15
2019-01-09T21:16:22.859Z,9.25
2019-01-09T21:18:51.114Z,9.40
2019-01-09T21:21:19.280Z,7.55
2019-01-09T21:23:47.453Z,6.03
2019-01-09T21:26:15.712Z,6.65
2019-01-09T21:28:43.976Z,7.00
2019-01-09T21:31:12.143Z,4.87
2019-01-09T21:33:40.353Z,5.55
2019-01-09T21:36:08.524Z,7.93
2019-01-09T21:38:36.733Z,3.80
2019-01-09T21:41:04.929Z,4.27
2019-01-09T21:43:33.129Z,4.20
2019-01-09T21:46:01.312Z,8.20
2019-01-09T21:48:29.495Z,5.50
2019-01-09T21:50:57.684Z,2.23
2019-01-09T21:53:25.860Z,4.20
2019-01-09T21:55:54.079Z,3.83
2019-01-09T21:58:22.281Z,5.27
2019-01-09T22:00:50.529Z,4.07
2019-01-09T22:03:18.732Z,7.03
2019-01-09T22:05:46.989Z,3.27
2019-01-09T22:08:15.165Z,3.63
2019-01-09T22:10:43.382Z,4.50
2019-01-09T22:13:11.659Z,3.60
2019-01-09T22:15:39.983Z,2.57
2019-01-09T22:18:08.182Z,3.43
2019-01-09T22:20:36.354Z,8.07
2019-01-09T22:23:04.636Z,4.57
2019-01-09T22:25:32.833Z,3.07
2019-01-09T22:28:01.038Z,3.67
2019-01-09T22:30:29.208Z,3.10
2019-01-09T22:32:57.409Z,2.20
2019-01-09T22:35:25.583Z,4.00
2019-01-09T22:37:53.808Z,3.93
2019-01-09T22:40:23.061Z,2.67
2019-01-09T22:42:51.260Z,5.07
2019-01-09T22:45:19.541Z,4.30
2019-01-09T22:47:47.712Z,3.90
2019-01-09T22:50:16.964Z,3.47
2019-01-09T22:52:45.134Z,3.87
2019-01-09T22:55:13.344Z,4.17
2019-01-09T22:57:41.516Z,2.75
2019-01-09T23:00:12.229Z,2.50
2019-01-09T23:02:40.404Z,5.73
2019-01-09T23:05:08.581Z,3.45
2019-01-09T23:07:36.756Z,4.50
2019-01-09T23:10:06.773Z,2.70
2019-01-09T23:12:34.980Z,4.00
2019-01-09T23:15:04.726Z,3.60
2019-01-09T23:17:32.958Z,2.20
2019-01-09T23:20:01.120Z,3.55
2019-01-09T23:22:29.325Z,2.03
2019-01-09T23:24:57.509Z,2.77
2019-01-09T23:27:25.691Z,4.00
2019-01-09T23:29:53.864Z,2.70
2019-01-09T23:32:22.081Z,5.90
2019-01-09T23:34:50.254Z,2.40
2019-01-09T23:37:18.424Z,5.63
2019-01-09T23:39:47.529Z,2.03
2019-01-09T23:42:15.736Z,1.40
2019-01-09T23:44:44.879Z,1.40
2019-01-09T23:47:13.098Z,1.20
2019-01-09T23:49:41.257Z,1.93
2019-01-09T23:52:09.457Z,2.95
2019-01-09T23:54:37.688Z,1.40
2019-01-09T23:57:05.885Z,1.60
2019-01-09T23:59:34.060Z,2.30
